sensor_id;sensor_type;location;lat;lon;timestamp;pressure;altitude;pressure_sealevel;temperature;humidity
21276;BME280;36472;52.170;20.884;2022-07-21T00:00:57;100905.19;;;20.40;71.19
21276;BME280;36472;52.170;20.884;2022-07-21T00:03:26;100897.78;;;20.33;71.57
21276;BME280;36472;52.170;20.884;2022-07-21T00:05:55;100897.69;;;20.25;72.04
21276;BME280;36472;52.170;20.884;2022-07-21T00:08:25;100898.69;;;20.24;72.38
21276;BME280;36472;52.170;20.884;2022-07-21T00:10:55;100897.44;;;20.18;72.73
21276;BME280;36472;52.170;20.884;2022-07-21T00:13:24;100900.41;;;20.15;72.79
21276;BME280;36472;52.170;20.884;2022-07-21T00:15:53;100904.00;;;20.06;73.27
21276;BME280;36472;52.170;20.884;2022-07-21T00:18:22;100906.41;;;19.99;73.47
21276;BME280;36472;52.170;20.884;2022-07-21T00:20:50;100907.75;;;19.86;74.33
21276;BME280;36472;52.170;20.884;2022-07-21T00:23:19;100900.66;;;19.76;75.05
21276;BME280;36472;52.170;20.884;2022-07-21T00:25:50;100906.69;;;19.69;75.59
21276;BME280;36472;52.170;20.884;2022-07-21T00:28:20;100906.31;;;19.54;76.58
21276;BME280;36472;52.170;20.884;2022-07-21T00:30:49;100908.19;;;19.43;77.09
21276;BME280;36472;52.170;20.884;2022-07-21T00:33:18;100901.50;;;19.30;78.29
21276;BME280;36472;52.170;20.884;2022-07-21T00:35:47;100900.13;;;19.16;78.44
21276;BME280;36472;52.170;20.884;2022-07-21T00:38:16;100900.88;;;18.98;79.04
21276;BME280;36472;52.170;20.884;2022-07-21T00:40:45;100899.63;;;18.83;79.55
21276;BME280;36472;52.170;20.884;2022-07-21T00:43:15;100893.16;;;18.85;79.69
21276;BME280;36472;52.170;20.884;2022-07-21T00:45:44;100897.53;;;18.86;79.82
21276;BME280;36472;52.170;20.884;2022-07-21T00:48:12;100898.19;;;18.79;81.22
21276;BME280;36472;52.170;20.884;2022-07-21T00:50:41;100893.16;;;18.66;81.66
21276;BME280;36472;52.170;20.884;2022-07-21T00:53:10;100887.13;;;18.74;81.40
21276;BME280;36472;52.170;20.884;2022-07-21T00:55:42;100890.66;;;18.74;81.30
21276;BME280;36472;52.170;20.884;2022-07-21T00:58:12;100900.47;;;18.83;80.82
21276;BME280;36472;52.170;20.884;2022-07-21T01:00:42;100904.91;;;19.02;79.81
21276;BME280;36472;52.170;20.884;2022-07-21T01:03:10;100912.22;;;19.10;79.52
21276;BME280;36472;52.170;20.884;2022-07-21T01:05:39;100906.06;;;19.00;80.26
21276;BME280;36472;52.170;20.884;2022-07-21T01:08:08;100920.94;;;18.93;80.53
21276;BME280;36472;52.170;20.884;2022-07-21T01:10:39;100931.00;;;18.89;81.19
21276;BME280;36472;52.170;20.884;2022-07-21T01:13:08;100926.22;;;19.02;80.42
21276;BME280;36472;52.170;20.884;2022-07-21T01:15:37;100935.34;;;19.10;80.00
21276;BME280;36472;52.170;20.884;2022-07-21T01:18:09;100937.97;;;19.19;79.40
21276;BME280;36472;52.170;20.884;2022-07-21T01:20:41;100940.94;;;19.16;79.18
21276;BME280;36472;52.170;20.884;2022-07-21T01:23:14;100951.19;;;19.01;79.99
21276;BME280;36472;52.170;20.884;2022-07-21T01:25:47;100936.78;;;18.84;80.41
21276;BME280;36472;52.170;20.884;2022-07-21T01:28:16;100949.63;;;18.79;81.05
21276;BME280;36472;52.170;20.884;2022-07-21T01:30:45;100933.38;;;18.73;81.50
21276;BME280;36472;52.170;20.884;2022-07-21T01:33:14;100935.34;;;18.61;82.82
21276;BME280;36472;52.170;20.884;2022-07-21T01:35:43;100928.59;;;18.37;84.54
21276;BME280;36472;52.170;20.884;2022-07-21T01:38:14;100930.94;;;18.21;85.30
21276;BME280;36472;52.170;20.884;2022-07-21T01:40:58;100941.69;;;18.09;86.15
21276;BME280;36472;52.170;20.884;2022-07-21T01:43:45;100945.19;;;18.10;85.78
21276;BME280;36472;52.170;20.884;2022-07-21T01:46:13;100948.31;;;18.25;85.14
21276;BME280;36472;52.170;20.884;2022-07-21T01:48:43;100950.97;;;18.25;84.91
21276;BME280;36472;52.170;20.884;2022-07-21T01:51:12;100949.41;;;18.22;85.23
21276;BME280;36472;52.170;20.884;2022-07-21T01:53:42;100947.19;;;18.18;85.50
21276;BME280;36472;52.170;20.884;2022-07-21T01:56:11;100950.78;;;18.07;86.40
21276;BME280;36472;52.170;20.884;2022-07-21T01:58:40;100950.34;;;18.02;87.12
21276;BME280;36472;52.170;20.884;2022-07-21T02:01:08;100954.66;;;17.93;87.21
21276;BME280;36472;52.170;20.884;2022-07-21T02:03:37;100947.59;;;17.82;88.42
21276;BME280;36472;52.170;20.884;2022-07-21T02:06:06;100950.06;;;17.74;88.51
21276;BME280;36472;52.170;20.884;2022-07-21T02:08:36;100947.94;;;17.68;89.33
21276;BME280;36472;52.170;20.884;2022-07-21T02:11:06;100939.69;;;17.71;89.11
21276;BME280;36472;52.170;20.884;2022-07-21T02:13:36;100948.22;;;17.65;89.12
21276;BME280;36472;52.170;20.884;2022-07-21T02:16:06;100954.50;;;17.64;95.02
21276;BME280;36472;52.170;20.884;2022-07-21T02:18:36;100949.81;;;17.04;100.00
21276;BME280;36472;52.170;20.884;2022-07-21T02:21:05;100957.50;;;16.75;100.00
21276;BME280;36472;52.170;20.884;2022-07-21T02:23:35;100956.84;;;16.61;100.00
21276;BME280;36472;52.170;20.884;2022-07-21T02:26:05;100953.59;;;16.58;100.00
21276;BME280;36472;52.170;20.884;2022-07-21T02:28:34;100957.47;;;16.54;100.00
21276;BME280;36472;52.170;20.884;2022-07-21T02:31:03;100958.22;;;16.44;100.00
21276;BME280;36472;52.170;20.884;2022-07-21T02:33:32;100959.78;;;16.36;100.00
21276;BME280;36472;52.170;20.884;2022-07-21T02:36:01;100955.38;;;16.25;100.00
21276;BME280;36472;52.170;20.884;2022-07-21T02:38:30;100962.09;;;16.29;100.00
21276;BME280;36472;52.170;20.884;2022-07-21T02:40:58;100953.66;;;16.24;100.00
21276;BME280;36472;52.170;20.884;2022-07-21T02:43:29;100951.88;;;16.13;100.00
21276;BME280;36472;52.170;20.884;2022-07-21T02:45:57;100955.13;;;16.05;100.00
21276;BME280;36472;52.170;20.884;2022-07-21T02:48:26;100943.47;;;16.08;100.00
21276;BME280;36472;52.170;20.884;2022-07-21T02:50:55;100940.69;;;16.10;100.00
21276;BME280;36472;52.170;20.884;2022-07-21T02:53:24;100940.06;;;16.17;100.00
21276;BME280;36472;52.170;20.884;2022-07-21T02:55:53;100938.75;;;16.23;100.00
21276;BME280;36472;52.170;20.884;2022-07-21T02:58:25;100935.69;;;16.27;100.00
21276;BME280;36472;52.170;20.884;2022-07-21T03:00:58;100934.16;;;16.25;100.00
21276;BME280;36472;52.170;20.884;2022-07-21T03:03:30;100936.91;;;16.35;100.00
21276;BME280;36472;52.170;20.884;2022-07-21T03:06:00;100936.50;;;16.39;100.00
21276;BME280;36472;52.170;20.884;2022-07-21T03:08:29;100931.31;;;16.49;100.00
21276;BME280;36472;52.170;20.884;2022-07-21T03:10:58;100932.59;;;16.55;100.00
21276;BME280;36472;52.170;20.884;2022-07-21T03:13:26;100936.59;;;16.60;100.00
21276;BME280;36472;52.170;20.884;2022-07-21T03:15:57;100935.09;;;16.68;100.00
21276;BME280;36472;52.170;20.884;2022-07-21T03:18:25;100931.22;;;16.72;100.00
21276;BME280;36472;52.170;20.884;2022-07-21T03:20:54;100927.34;;;16.76;100.00
21276;BME280;36472;52.170;20.884;2022-07-21T03:23:23;100930.84;;;16.76;100.00
21276;BME280;36472;52.170;20.884;2022-07-21T03:25:51;100930.63;;;16.68;100.00
21276;BME280;36472;52.170;20.884;2022-07-21T03:28:20;100927.53;;;16.63;100.00
21276;BME280;36472;52.170;20.884;2022-07-21T03:30:49;100935.22;;;16.34;100.00
21276;BME280;36472;52.170;20.884;2022-07-21T03:33:19;100928.31;;;15.87;100.00
21276;BME280;36472;52.170;20.884;2022-07-21T03:35:48;100924.75;;;15.64;100.00
21276;BME280;36472;52.170;20.884;2022-07-21T03:38:17;100925.00;;;15.50;100.00
21276;BME280;36472;52.170;20.884;2022-07-21T03:40:45;100930.66;;;15.45;100.00
21276;BME280;36472;52.170;20.884;2022-07-21T03:43:14;100933.41;;;15.44;100.00
21276;BME280;36472;52.170;20.884;2022-07-21T03:45:43;100927.75;;;15.37;100.00
21276;BME280;36472;52.170;20.884;2022-07-21T03:48:12;100926.09;;;15.36;100.00
21276;BME280;36472;52.170;20.884;2022-07-21T03:50:42;100928.00;;;15.34;100.00
21276;BME280;36472;52.170;20.884;2022-07-21T03:53:11;100923.56;;;15.34;100.00
21276;BME280;36472;52.170;20.884;2022-07-21T03:55:40;100922.13;;;15.64;100.00
21276;BME280;36472;52.170;20.884;2022-07-21T03:58:08;100929.03;;;15.78;100.00
21276;BME280;36472;52.170;20.884;2022-07-21T04:00:40;100936.00;;;15.91;100.00
21276;BME280;36472;52.170;20.884;2022-07-21T04:03:11;100933.59;;;15.87;100.00
21276;BME280;36472;52.170;20.884;2022-07-21T04:05:43;100926.72;;;16.07;100.00
21276;BME280;36472;52.170;20.884;2022-07-21T04:08:13;100928.72;;;16.26;100.00
21276;BME280;36472;52.170;20.884;2022-07-21T04:10:43;100931.22;;;16.39;100.00
21276;BME280;36472;52.170;20.884;2022-07-21T04:13:13;100935.22;;;16.66;100.00
21276;BME280;36472;52.170;20.884;2022-07-21T04:15:42;100935.66;;;16.82;100.00
21276;BME280;36472;52.170;20.884;2022-07-21T04:18:11;100946.56;;;17.00;100.00
21276;BME280;36472;52.170;20.884;2022-07-21T04:20:39;100942.03;;;17.12;100.00
21276;BME280;36472;52.170;20.884;2022-07-21T04:23:09;100942.00;;;17.24;100.00
21276;BME280;36472;52.170;20.884;2022-07-21T04:25:38;100944.69;;;17.12;100.00
21276;BME280;36472;52.170;20.884;2022-07-21T04:28:07;100951.31;;;17.39;100.00
21276;BME280;36472;52.170;20.884;2022-07-21T04:30:36;100949.66;;;17.27;100.00
21276;BME280;36472;52.170;20.884;2022-07-21T04:33:04;100944.56;;;17.35;100.00
21276;BME280;36472;52.170;20.884;2022-07-21T04:35:34;100951.63;;;17.46;100.00
21276;BME280;36472;52.170;20.884;2022-07-21T04:38:03;100944.81;;;17.53;100.00
21276;BME280;36472;52.170;20.884;2022-07-21T04:40:33;100947.69;;;17.71;100.00
21276;BME280;36472;52.170;20.884;2022-07-21T04:43:01;100948.09;;;17.66;100.00
21276;BME280;36472;52.170;20.884;2022-07-21T04:45:32;100948.50;;;17.92;100.00
21276;BME280;36472;52.170;20.884;2022-07-21T04:48:01;100945.72;;;17.94;100.00
21276;BME280;36472;52.170;20.884;2022-07-21T04:50:30;100951.06;;;18.13;100.00
21276;BME280;36472;52.170;20.884;2022-07-21T04:52:59;100942.72;;;18.28;100.00
21276;BME280;36472;52.170;20.884;2022-07-21T04:55:28;100941.50;;;18.42;100.00
21276;BME280;36472;52.170;20.884;2022-07-21T04:57:58;100939.78;;;18.41;100.00
21276;BME280;36472;52.170;20.884;2022-07-21T05:00:27;100934.78;;;18.57;100.00
21276;BME280;36472;52.170;20.884;2022-07-21T05:02:57;100934.34;;;18.52;100.00
21276;BME280;36472;52.170;20.884;2022-07-21T05:05:26;100936.88;;;18.63;100.00
21276;BME280;36472;52.170;20.884;2022-07-21T05:07:55;100934.91;;;18.75;99.58
21276;BME280;36472;52.170;20.884;2022-07-21T05:10:24;100937.84;;;18.53;98.17
21276;BME280;36472;52.170;20.884;2022-07-21T05:12:52;100929.88;;;18.72;100.00
21276;BME280;36472;52.170;20.884;2022-07-21T05:15:22;100933.81;;;18.78;96.53
21276;BME280;36472;52.170;20.884;2022-07-21T05:17:51;100930.88;;;18.81;93.38
21276;BME280;36472;52.170;20.884;2022-07-21T05:20:20;100936.63;;;18.86;95.68
21276;BME280;36472;52.170;20.884;2022-07-21T05:22:48;100936.47;;;18.97;96.39
21276;BME280;36472;52.170;20.884;2022-07-21T05:25:17;100947.13;;;18.78;93.98
21276;BME280;36472;52.170;20.884;2022-07-21T05:27:46;100946.00;;;18.90;90.54
21276;BME280;36472;52.170;20.884;2022-07-21T05:30:14;100949.09;;;19.05;90.22
21276;BME280;36472;52.170;20.884;2022-07-21T05:32:45;100951.16;;;19.21;84.97
21276;BME280;36472;52.170;20.884;2022-07-21T05:35:15;100949.09;;;19.62;83.77
21276;BME280;36472;52.170;20.884;2022-07-21T05:37:44;100949.50;;;19.67;81.67
21276;BME280;36472;52.170;20.884;2022-07-21T05:40:14;100951.00;;;19.79;77.45
21276;BME280;36472;52.170;20.884;2022-07-21T05:42:44;100950.44;;;20.41;78.15
21276;BME280;36472;52.170;20.884;2022-07-21T05:45:15;100947.19;;;20.65;75.17
21276;BME280;36472;52.170;20.884;2022-07-21T05:47:45;100954.94;;;20.59;73.33
21276;BME280;36472;52.170;20.884;2022-07-21T05:50:14;100948.31;;;20.63;73.58
21276;BME280;36472;52.170;20.884;2022-07-21T05:52:43;100954.53;;;20.53;72.43
21276;BME280;36472;52.170;20.884;2022-07-21T05:55:12;100950.13;;;20.80;69.21
21276;BME280;36472;52.170;20.884;2022-07-21T05:57:41;100941.81;;;21.01;66.90
21276;BME280;36472;52.170;20.884;2022-07-21T06:00:15;100938.84;;;21.30;64.93
21276;BME280;36472;52.170;20.884;2022-07-21T06:02:46;100948.28;;;20.99;64.88
21276;BME280;36472;52.170;20.884;2022-07-21T06:05:15;100956.22;;;21.08;64.06
21276;BME280;36472;52.170;20.884;2022-07-21T06:07:44;100945.00;;;21.49;66.49
21276;BME280;36472;52.170;20.884;2022-07-21T06:10:12;100952.06;;;21.58;64.75
21276;BME280;36472;52.170;20.884;2022-07-21T06:12:44;100944.81;;;21.77;61.64
21276;BME280;36472;52.170;20.884;2022-07-21T06:15:14;100938.47;;;21.78;61.99
21276;BME280;36472;52.170;20.884;2022-07-21T06:17:45;100935.34;;;21.91;61.59
21276;BME280;36472;52.170;20.884;2022-07-21T06:20:14;100936.03;;;22.01;63.44
21276;BME280;36472;52.170;20.884;2022-07-21T06:22:43;100925.75;;;22.31;61.16
21276;BME280;36472;52.170;20.884;2022-07-21T06:25:11;100928.31;;;22.73;58.81
21276;BME280;36472;52.170;20.884;2022-07-21T06:27:40;100926.81;;;22.63;59.30
21276;BME280;36472;52.170;20.884;2022-07-21T06:30:11;100927.66;;;22.47;56.38
21276;BME280;36472;52.170;20.884;2022-07-21T06:32:39;100923.97;;;22.64;56.36
21276;BME280;36472;52.170;20.884;2022-07-21T06:35:10;100933.00;;;22.47;54.89
21276;BME280;36472;52.170;20.884;2022-07-21T06:37:44;100931.34;;;23.03;56.20
21276;BME280;36472;52.170;20.884;2022-07-21T06:40:14;100932.13;;;23.53;52.08
21276;BME280;36472;52.170;20.884;2022-07-21T06:42:43;100939.09;;;24.73;48.46
21276;BME280;36472;52.170;20.884;2022-07-21T06:45:32;100936.97;;;25.59;47.12
21276;BME280;36472;52.170;20.884;2022-07-21T06:48:02;100940.91;;;26.08;46.63
21276;BME280;36472;52.170;20.884;2022-07-21T06:50:36;100943.53;;;25.71;46.79
21276;BME280;36472;52.170;20.884;2022-07-21T06:53:06;100944.88;;;24.85;47.22
21276;BME280;36472;52.170;20.884;2022-07-21T06:55:36;100943.25;;;24.98;48.21
21276;BME280;36472;52.170;20.884;2022-07-21T06:58:12;100936.75;;;25.46;47.42
21276;BME280;36472;52.170;20.884;2022-07-21T07:00:42;100927.25;;;25.20;48.48
21276;BME280;36472;52.170;20.884;2022-07-21T07:03:11;100933.47;;;25.20;46.46
21276;BME280;36472;52.170;20.884;2022-07-21T07:05:42;100941.94;;;24.94;46.87
21276;BME280;36472;52.170;20.884;2022-07-21T07:08:12;100944.63;;;25.32;46.08
21276;BME280;36472;52.170;20.884;2022-07-21T07:10:42;100942.31;;;26.04;43.56
21276;BME280;36472;52.170;20.884;2022-07-21T07:13:13;100941.53;;;27.11;43.22
21276;BME280;36472;52.170;20.884;2022-07-21T07:16:03;100948.53;;;26.04;42.92
21276;BME280;36472;52.170;20.884;2022-07-21T07:18:32;100939.38;;;26.57;43.14
21276;BME280;36472;52.170;20.884;2022-07-21T07:21:02;100942.72;;;26.80;43.02
21276;BME280;36472;52.170;20.884;2022-07-21T07:23:38;100945.00;;;26.83;42.53
21276;BME280;36472;52.170;20.884;2022-07-21T07:26:07;100959.50;;;26.03;43.12
21276;BME280;36472;52.170;20.884;2022-07-21T07:28:36;100961.75;;;26.57;43.60
21276;BME280;36472;52.170;20.884;2022-07-21T07:31:05;100954.09;;;27.95;40.54
21276;BME280;36472;52.170;20.884;2022-07-21T07:33:33;100958.00;;;27.23;41.32
21276;BME280;36472;52.170;20.884;2022-07-21T07:36:04;100971.50;;;27.86;41.32
21276;BME280;36472;52.170;20.884;2022-07-21T07:38:34;100975.97;;;29.22;39.07
21276;BME280;36472;52.170;20.884;2022-07-21T07:41:03;100979.91;;;29.46;38.95
21276;BME280;36472;52.170;20.884;2022-07-21T07:43:32;100974.44;;;29.73;37.95
21276;BME280;36472;52.170;20.884;2022-07-21T07:46:01;100973.88;;;29.44;36.41
21276;BME280;36472;52.170;20.884;2022-07-21T07:48:30;100975.69;;;29.71;34.98
21276;BME280;36472;52.170;20.884;2022-07-21T07:50:59;100973.63;;;29.66;35.63
21276;BME280;36472;52.170;20.884;2022-07-21T07:53:29;100974.94;;;30.54;35.09
21276;BME280;36472;52.170;20.884;2022-07-21T07:55:58;100970.22;;;31.25;33.93
21276;BME280;36472;52.170;20.884;2022-07-21T07:58:27;100975.56;;;31.13;33.39
21276;BME280;36472;52.170;20.884;2022-07-21T08:00:56;100965.41;;;32.50;32.10
21276;BME280;36472;52.170;20.884;2022-07-21T08:03:33;100966.50;;;33.14;31.13
21276;BME280;36472;52.170;20.884;2022-07-21T08:06:03;100970.72;;;31.40;31.06
21276;BME280;36472;52.170;20.884;2022-07-21T08:08:34;100970.31;;;29.77;33.73
21276;BME280;36472;52.170;20.884;2022-07-21T08:11:03;100962.19;;;29.64;33.44
21276;BME280;36472;52.170;20.884;2022-07-21T08:13:32;100955.25;;;30.27;33.56
21276;BME280;36472;52.170;20.884;2022-07-21T08:16:02;100955.88;;;30.92;33.01
21276;BME280;36472;52.170;20.884;2022-07-21T08:18:31;100951.78;;;32.80;30.67
21276;BME280;36472;52.170;20.884;2022-07-21T08:21:00;100954.19;;;34.00;28.50
21276;BME280;36472;52.170;20.884;2022-07-21T08:23:31;100954.97;;;31.67;31.15
21276;BME280;36472;52.170;20.884;2022-07-21T08:26:03;100952.47;;;32.33;29.67
21276;BME280;36472;52.170;20.884;2022-07-21T08:28:32;100946.91;;;32.28;31.04
21276;BME280;36472;52.170;20.884;2022-07-21T08:31:00;100944.81;;;31.38;31.95
21276;BME280;36472;52.170;20.884;2022-07-21T08:33:32;100935.88;;;31.12;32.64
21276;BME280;36472;52.170;20.884;2022-07-21T08:36:01;100953.34;;;31.41;32.14
21276;BME280;36472;52.170;20.884;2022-07-21T08:38:30;100944.69;;;31.88;31.45
21276;BME280;36472;52.170;20.884;2022-07-21T08:40:58;100946.22;;;31.65;31.78
21276;BME280;36472;52.170;20.884;2022-07-21T08:43:29;100950.09;;;32.67;29.66
21276;BME280;36472;52.170;20.884;2022-07-21T08:45:59;100952.72;;;32.43;29.92
21276;BME280;36472;52.170;20.884;2022-07-21T08:48:28;100961.38;;;33.06;31.05
21276;BME280;36472;52.170;20.884;2022-07-21T08:50:57;100961.00;;;31.88;30.50
21276;BME280;36472;52.170;20.884;2022-07-21T08:53:27;100958.34;;;33.14;29.57
21276;BME280;36472;52.170;20.884;2022-07-21T08:55:56;100953.59;;;33.98;28.82
21276;BME280;36472;52.170;20.884;2022-07-21T08:58:24;100958.81;;;34.74;28.07
21276;BME280;36472;52.170;20.884;2022-07-21T09:00:55;100962.59;;;35.07;27.64
21276;BME280;36472;52.170;20.884;2022-07-21T09:03:26;100962.25;;;34.69;26.78
21276;BME280;36472;52.170;20.884;2022-07-21T09:06:05;100967.69;;;35.98;25.26
21276;BME280;36472;52.170;20.884;2022-07-21T09:08:39;100969.25;;;36.71;24.71
21276;BME280;36472;52.170;20.884;2022-07-21T09:11:14;100967.91;;;35.91;22.46
21276;BME280;36472;52.170;20.884;2022-07-21T09:13:46;100960.91;;;37.78;22.32
21276;BME280;36472;52.170;20.884;2022-07-21T09:16:44;100956.97;;;38.68;22.33
21276;BME280;36472;52.170;20.884;2022-07-21T09:19:20;100957.81;;;40.30;21.28
21276;BME280;36472;52.170;20.884;2022-07-21T09:21:53;100950.91;;;38.50;22.42
21276;BME280;36472;52.170;20.884;2022-07-21T09:24:26;100942.16;;;39.75;21.20
21276;BME280;36472;52.170;20.884;2022-07-21T09:27:04;100933.63;;;40.90;20.58
21276;BME280;36472;52.170;20.884;2022-07-21T09:29:39;100929.13;;;41.48;21.30
21276;BME280;36472;52.170;20.884;2022-07-21T09:32:23;100938.84;;;42.73;18.78
21276;BME280;36472;52.170;20.884;2022-07-21T09:34:57;100933.69;;;41.09;19.59
21276;BME280;36472;52.170;20.884;2022-07-21T09:37:35;100930.81;;;40.96;19.37
21276;BME280;36472;52.170;20.884;2022-07-21T09:40:07;100931.41;;;40.24;20.42
21276;BME280;36472;52.170;20.884;2022-07-21T09:42:39;100921.50;;;40.91;19.70
21276;BME280;36472;52.170;20.884;2022-07-21T09:45:11;100924.03;;;42.50;19.46
21276;BME280;36472;52.170;20.884;2022-07-21T09:47:43;100925.88;;;41.41;19.19
21276;BME280;36472;52.170;20.884;2022-07-21T09:50:16;100930.97;;;42.15;18.84
21276;BME280;36472;52.170;20.884;2022-07-21T09:52:56;100936.78;;;42.13;18.51
21276;BME280;36472;52.170;20.884;2022-07-21T09:55:25;100920.19;;;41.32;18.19
21276;BME280;36472;52.170;20.884;2022-07-21T09:57:58;100928.44;;;41.80;18.47
21276;BME280;36472;52.170;20.884;2022-07-21T10:00:28;100923.91;;;43.71;17.93
21276;BME280;36472;52.170;20.884;2022-07-21T10:03:03;100924.31;;;43.79;17.53
21276;BME280;36472;52.170;20.884;2022-07-21T10:05:33;100930.53;;;42.73;17.99
21276;BME280;36472;52.170;20.884;2022-07-21T10:08:03;100922.25;;;43.70;17.89
21276;BME280;36472;52.170;20.884;2022-07-21T10:10:34;100926.09;;;42.58;17.03
21276;BME280;36472;52.170;20.884;2022-07-21T10:13:26;100916.63;;;42.32;18.49
21276;BME280;36472;52.170;20.884;2022-07-21T10:15:56;100913.94;;;40.73;20.25
21276;BME280;36472;52.170;20.884;2022-07-21T10:18:30;100907.16;;;39.86;20.75
21276;BME280;36472;52.170;20.884;2022-07-21T10:21:10;100910.31;;;36.95;23.50
21276;BME280;36472;52.170;20.884;2022-07-21T10:23:43;100908.41;;;37.01;25.04
21276;BME280;36472;52.170;20.884;2022-07-21T10:26:14;100901.19;;;35.70;25.05
21276;BME280;36472;52.170;20.884;2022-07-21T10:28:43;100897.44;;;34.93;24.59
21276;BME280;36472;52.170;20.884;2022-07-21T10:31:18;100895.97;;;36.18;24.45
21276;BME280;36472;52.170;20.884;2022-07-21T10:34:00;100887.72;;;35.64;27.97
21276;BME280;36472;52.170;20.884;2022-07-21T10:36:44;100886.09;;;36.17;25.10
21276;BME280;36472;52.170;20.884;2022-07-21T10:39:22;100877.88;;;35.40;25.95
21276;BME280;36472;52.170;20.884;2022-07-21T10:41:55;100885.13;;;35.74;23.88
21276;BME280;36472;52.170;20.884;2022-07-21T10:44:47;100882.81;;;34.03;25.80
21276;BME280;36472;52.170;20.884;2022-07-21T10:47:19;100882.09;;;32.91;29.25
21276;BME280;36472;52.170;20.884;2022-07-21T10:49:53;100880.91;;;32.75;29.31
21276;BME280;36472;52.170;20.884;2022-07-21T10:52:58;100871.72;;;33.92;26.34
21276;BME280;36472;52.170;20.884;2022-07-21T10:55:32;100873.06;;;34.07;27.25
21276;BME280;36472;52.170;20.884;2022-07-21T10:58:25;100865.47;;;34.09;29.65
21276;BME280;36472;52.170;20.884;2022-07-21T11:00:56;100853.66;;;34.03;26.03
21276;BME280;36472;52.170;20.884;2022-07-21T11:03:35;100858.16;;;34.60;26.91
21276;BME280;36472;52.170;20.884;2022-07-21T11:06:18;100854.75;;;33.62;27.79
21276;BME280;36472;52.170;20.884;2022-07-21T11:09:08;100858.69;;;34.12;28.48
21276;BME280;36472;52.170;20.884;2022-07-21T11:11:56;100856.03;;;34.28;29.05
21276;BME280;36472;52.170;20.884;2022-07-21T11:14:38;100862.69;;;33.51;28.29
21276;BME280;36472;52.170;20.884;2022-07-21T11:17:09;100848.56;;;34.41;27.10
21276;BME280;36472;52.170;20.884;2022-07-21T11:19:43;100848.47;;;33.21;28.59
21276;BME280;36472;52.170;20.884;2022-07-21T11:22:19;100844.81;;;33.55;28.20
21276;BME280;36472;52.170;20.884;2022-07-21T11:24:51;100846.78;;;33.43;29.02
21276;BME280;36472;52.170;20.884;2022-07-21T11:27:30;100845.88;;;33.14;29.31
21276;BME280;36472;52.170;20.884;2022-07-21T11:30:03;100847.66;;;32.73;30.93
21276;BME280;36472;52.170;20.884;2022-07-21T11:32:33;100847.94;;;32.17;28.53
21276;BME280;36472;52.170;20.884;2022-07-21T11:35:05;100834.06;;;32.07;29.54
21276;BME280;36472;52.170;20.884;2022-07-21T11:37:38;100830.66;;;31.81;30.79
21276;BME280;36472;52.170;20.884;2022-07-21T11:40:11;100829.56;;;31.71;31.10
21276;BME280;36472;52.170;20.884;2022-07-21T11:42:43;100829.06;;;31.43;31.64
21276;BME280;36472;52.170;20.884;2022-07-21T11:45:14;100823.34;;;31.33;32.73
21276;BME280;36472;52.170;20.884;2022-07-21T11:47:43;100814.03;;;31.22;32.23
21276;BME280;36472;52.170;20.884;2022-07-21T11:50:18;100814.75;;;30.74;32.27
21276;BME280;36472;52.170;20.884;2022-07-21T11:52:50;100820.41;;;30.47;33.00
21276;BME280;36472;52.170;20.884;2022-07-21T11:55:19;100819.16;;;30.50;34.33
21276;BME280;36472;52.170;20.884;2022-07-21T11:57:47;100820.13;;;30.55;32.57
21276;BME280;36472;52.170;20.884;2022-07-21T12:00:17;100819.06;;;30.31;33.56
21276;BME280;36472;52.170;20.884;2022-07-21T12:02:48;100820.22;;;30.17;32.43
21276;BME280;36472;52.170;20.884;2022-07-21T12:05:18;100815.63;;;30.17;33.86
21276;BME280;36472;52.170;20.884;2022-07-21T12:07:49;100812.75;;;30.12;32.88
21276;BME280;36472;52.170;20.884;2022-07-21T12:10:25;100813.47;;;30.26;33.60
21276;BME280;36472;52.170;20.884;2022-07-21T12:13:00;100809.28;;;30.30;33.42
21276;BME280;36472;52.170;20.884;2022-07-21T12:15:32;100803.50;;;30.20;33.39
21276;BME280;36472;52.170;20.884;2022-07-21T12:18:06;100814.06;;;30.03;33.86
21276;BME280;36472;52.170;20.884;2022-07-21T12:20:38;100805.91;;;29.71;32.80
21276;BME280;36472;52.170;20.884;2022-07-21T12:23:21;100804.19;;;29.83;33.42
21276;BME280;36472;52.170;20.884;2022-07-21T12:25:52;100802.97;;;29.79;32.80
21276;BME280;36472;52.170;20.884;2022-07-21T12:28:42;100806.28;;;29.75;33.87
21276;BME280;36472;52.170;20.884;2022-07-21T12:31:14;100804.63;;;29.74;34.03
21276;BME280;36472;52.170;20.884;2022-07-21T12:33:44;100798.84;;;29.63;33.35
21276;BME280;36472;52.170;20.884;2022-07-21T12:36:34;100796.81;;;29.59;34.39
21276;BME280;36472;52.170;20.884;2022-07-21T12:39:17;100795.16;;;29.51;33.66
21276;BME280;36472;52.170;20.884;2022-07-21T12:42:00;100793.59;;;29.30;34.91
21276;BME280;36472;52.170;20.884;2022-07-21T12:44:32;100798.75;;;29.83;35.71
21276;BME280;36472;52.170;20.884;2022-07-21T12:47:16;100789.56;;;29.91;35.82
21276;BME280;36472;52.170;20.884;2022-07-21T12:50:00;100792.09;;;30.11;34.26
21276;BME280;36472;52.170;20.884;2022-07-21T12:52:47;100800.00;;;29.88;34.02
21276;BME280;36472;52.170;20.884;2022-07-21T12:55:17;100794.25;;;29.71;35.31
21276;BME280;36472;52.170;20.884;2022-07-21T12:57:46;100791.28;;;29.40;35.74
21276;BME280;36472;52.170;20.884;2022-07-21T13:00:15;100788.44;;;29.67;35.69